Amherstburg, Canada
Current Conditions -  °F | °C
As of 3:34 PM on Friday 28 Nov 2014 (Local Time) from KONZ Reporting Station
Overcast Overcast  
Wind Chill: 20°   Ceiling: 6000
Heat Index: 28°   Visibility: 10mi
Dew Point: 18°   Wind: 9mph
Humidity: 64%   Direction: 200°SSW
Pressure: 30.2"   Gusts: NA
Location:  42.1°N, 83.11°W
Report Text: KONZ 282034Z AUTO 20008KT 10SM SCT030 BKN060 OVC100 M02/M08 A3020 RMK AO2
Loading
Personal Weather Stations






























Interactive Weather Map New forecast layout! Learn more

10-Day Weather Forecast

Advertisements
Track Severe Weather on mobile